F\v Arau — FODR — position and weather

sailwx.info

Track history (hours):
 
Tides and Currents Weather Stations Pressure Air Temp Water Temp Dewpoint Dewpoint Depression Visibility Wind Speed Wind Dir Waves Ship Positions

F\v Arau

Last reported at 2018-Jul-13 04:17 UTC. Time now 2018-Jul-21 07:49 UTC.
Position S 22°22' E 166°06'.
Warning: this ship's position is 8 days out of date.

Length 21 m; draft 2.9 m.

Type: Fishing. MMSI: 540001900.

Date/timePositionNaut miles runAvg speedWind from/ knotsBaromVisibWave heightAir tempDewpointWater temp
2018-Jul-13 04:17S 22°22' E 166°06'2 7.9
2018-Jul-13 04:00S 22°22' E 166°09'4 7.7
2018-Jul-13 03:30S 22°22' E 166°13'3 7.0
2018-Jul-13 03:00S 22°20' E 166°16'4 7.7
2018-Jul-13 02:31S 22°18' E 166°19'4 7.4
2018-Jul-13 02:00S 22°15' E 166°22'3 5.7
2018-Jul-13 01:29S 22°16' E 166°25'0 0.0
2018-Jul-13 01:00S 22°16' E 166°25'0 0.0
2018-Jul-13 00:30S 22°16' E 166°25'0 0.0
2018-Jul-13 00:01S 22°16' E 166°25'0 0.0
2018-Jul-12 23:29S 22°16' E 166°25'0 0.0
2018-Jul-12 23:00S 22°16' E 166°25'0 0.0
2018-Jul-12 22:30S 22°16' E 166°25'0 0.0
2018-Jul-12 21:49S 22°16' E 166°25'  
2018-Jul-09 22:42S 22°16' E 166°25'0 0.0
2018-Jul-09 22:29S 22°16' E 166°25'0 0.0
2018-Jul-09 21:24S 22°16' E 166°25'2 4.3
2018-Jul-09 21:00S 22°15' E 166°24'4 7.0
2018-Jul-09 20:30S 22°16' E 166°21'4 7.8
2018-Jul-09 20:01S 22°19' E 166°18'4 7.4
2018-Jul-09 19:31S 22°22' E 166°15'2 2.9
2018-Jul-09 18:57S 22°21' E 166°13'1 1.6
2018-Jul-09 18:30S 22°22' E 166°14'3 5.3
2018-Jul-09 17:58S 22°22' E 166°11'  
Track history (hours):
 
Tides and Currents Weather Stations Pressure Air Temp Water Temp Dewpoint Dewpoint Depression Visibility Wind Speed Wind Dir Waves Ship Positions

F\v Arau

Last reported at 2018-Jul-13 04:17 UTC. Time now 2018-Jul-21 07:49 UTC.
Position S 22°22' E 166°06'.
Warning: this ship's position is 8 days out of date.

Length 21 m; draft 2.9 m.

Type: Fishing. MMSI: 540001900.

Date/timePositionNaut miles runAvg speedWind from/ knotsBaromVisibWave heightAir tempDewpointWater temp
2018-Jul-13 04:17S 22°22' E 166°06'2 7.9
2018-Jul-13 04:00S 22°22' E 166°09'4 7.7
2018-Jul-13 03:30S 22°22' E 166°13'3 7.0
2018-Jul-13 03:00S 22°20' E 166°16'4 7.7
2018-Jul-13 02:31S 22°18' E 166°19'4 7.4
2018-Jul-13 02:00S 22°15' E 166°22'3 5.7
2018-Jul-13 01:29S 22°16' E 166°25'0 0.0
2018-Jul-13 01:00S 22°16' E 166°25'0 0.0
2018-Jul-13 00:30S 22°16' E 166°25'0 0.0
2018-Jul-13 00:01S 22°16' E 166°25'0 0.0
2018-Jul-12 23:29S 22°16' E 166°25'0 0.0
2018-Jul-12 23:00S 22°16' E 166°25'0 0.0
2018-Jul-12 22:30S 22°16' E 166°25'0 0.0
2018-Jul-12 21:49S 22°16' E 166°25'  
2018-Jul-09 22:42S 22°16' E 166°25'0 0.0
2018-Jul-09 22:29S 22°16' E 166°25'0 0.0
2018-Jul-09 21:24S 22°16' E 166°25'2 4.3
2018-Jul-09 21:00S 22°15' E 166°24'4 7.0
2018-Jul-09 20:30S 22°16' E 166°21'4 7.8
2018-Jul-09 20:01S 22°19' E 166°18'4 7.4
2018-Jul-09 19:31S 22°22' E 166°15'2 2.9
2018-Jul-09 18:57S 22°21' E 166°13'1 1.6
2018-Jul-09 18:30S 22°22' E 166°14'3 5.3
2018-Jul-09 17:58S 22°22' E 166°11'  

Dump ship's entire track history